sensor_id;sensor_type;location;lat;lon;timestamp;P1;durP1;ratioP1;P2;durP2;ratioP2
79036;SDS011;68434;59.896;30.474;2023-05-23T00:02:00;11.88;;;8.80;;
79036;SDS011;68434;59.896;30.474;2023-05-23T00:04:32;12.35;;;9.82;;
79036;SDS011;68434;59.896;30.474;2023-05-23T00:07:01;14.15;;;9.95;;
79036;SDS011;68434;59.896;30.474;2023-05-23T00:09:29;12.77;;;10.32;;
79036;SDS011;68434;59.896;30.474;2023-05-23T00:11:57;13.95;;;10.35;;
79036;SDS011;68434;59.896;30.474;2023-05-23T00:14:27;14.68;;;10.50;;
79036;SDS011;68434;59.896;30.474;2023-05-23T00:16:58;12.85;;;9.90;;
79036;SDS011;68434;59.896;30.474;2023-05-23T00:19:27;12.32;;;9.40;;
79036;SDS011;68434;59.896;30.474;2023-05-23T00:21:54;14.50;;;10.32;;
79036;SDS011;68434;59.896;30.474;2023-05-23T00:24:23;13.35;;;9.75;;
79036;SDS011;68434;59.896;30.474;2023-05-23T00:26:51;14.02;;;10.00;;
79036;SDS011;68434;59.896;30.474;2023-05-23T00:29:19;12.63;;;9.25;;
79036;SDS011;68434;59.896;30.474;2023-05-23T00:31:48;12.30;;;9.93;;
79036;SDS011;68434;59.896;30.474;2023-05-23T00:34:16;12.27;;;9.68;;
79036;SDS011;68434;59.896;30.474;2023-05-23T00:36:44;14.20;;;10.70;;
79036;SDS011;68434;59.896;30.474;2023-05-23T00:39:16;12.20;;;9.52;;
79036;SDS011;68434;59.896;30.474;2023-05-23T00:41:47;13.43;;;11.00;;
79036;SDS011;68434;59.896;30.474;2023-05-23T00:44:15;12.95;;;10.85;;
79036;SDS011;68434;59.896;30.474;2023-05-23T00:46:44;13.18;;;10.50;;
79036;SDS011;68434;59.896;30.474;2023-05-23T00:49:17;13.13;;;10.40;;
79036;SDS011;68434;59.896;30.474;2023-05-23T00:51:46;15.30;;;11.65;;
79036;SDS011;68434;59.896;30.474;2023-05-23T00:54:14;14.55;;;12.13;;
79036;SDS011;68434;59.896;30.474;2023-05-23T00:56:44;15.13;;;11.75;;
79036;SDS011;68434;59.896;30.474;2023-05-23T00:59:12;17.27;;;12.13;;
79036;SDS011;68434;59.896;30.474;2023-05-23T01:01:41;15.18;;;11.77;;
79036;SDS011;68434;59.896;30.474;2023-05-23T01:04:13;15.25;;;12.52;;
79036;SDS011;68434;59.896;30.474;2023-05-23T01:06:42;15.73;;;11.73;;
79036;SDS011;68434;59.896;30.474;2023-05-23T01:09:11;15.75;;;11.98;;
79036;SDS011;68434;59.896;30.474;2023-05-23T01:11:41;14.05;;;11.60;;
79036;SDS011;68434;59.896;30.474;2023-05-23T01:14:14;14.90;;;11.20;;
79036;SDS011;68434;59.896;30.474;2023-05-23T01:16:46;12.77;;;10.82;;
79036;SDS011;68434;59.896;30.474;2023-05-23T01:19:33;14.20;;;10.57;;
79036;SDS011;68434;59.896;30.474;2023-05-23T01:22:17;14.55;;;10.75;;
79036;SDS011;68434;59.896;30.474;2023-05-23T01:24:53;15.30;;;12.68;;
79036;SDS011;68434;59.896;30.474;2023-05-23T01:27:28;16.45;;;12.85;;
79036;SDS011;68434;59.896;30.474;2023-05-23T01:30:10;13.88;;;10.57;;
79036;SDS011;68434;59.896;30.474;2023-05-23T01:32:39;18.52;;;13.43;;
79036;SDS011;68434;59.896;30.474;2023-05-23T01:35:09;19.67;;;12.18;;
79036;SDS011;68434;59.896;30.474;2023-05-23T01:37:39;14.98;;;12.57;;
79036;SDS011;68434;59.896;30.474;2023-05-23T01:40:09;16.33;;;11.52;;
79036;SDS011;68434;59.896;30.474;2023-05-23T01:42:44;16.83;;;13.07;;
79036;SDS011;68434;59.896;30.474;2023-05-23T01:45:14;17.55;;;12.50;;
79036;SDS011;68434;59.896;30.474;2023-05-23T01:47:43;15.80;;;11.25;;
79036;SDS011;68434;59.896;30.474;2023-05-23T01:50:14;14.60;;;10.85;;
79036;SDS011;68434;59.896;30.474;2023-05-23T01:52:43;18.40;;;11.50;;
79036;SDS011;68434;59.896;30.474;2023-05-23T01:55:12;16.55;;;13.07;;
79036;SDS011;68434;59.896;30.474;2023-05-23T01:57:45;17.35;;;11.90;;
79036;SDS011;68434;59.896;30.474;2023-05-23T02:00:14;18.55;;;10.35;;
79036;SDS011;68434;59.896;30.474;2023-05-23T02:02:45;15.57;;;12.07;;
79036;SDS011;68434;59.896;30.474;2023-05-23T02:05:15;17.00;;;12.13;;
79036;SDS011;68434;59.896;30.474;2023-05-23T02:07:44;16.10;;;12.07;;
79036;SDS011;68434;59.896;30.474;2023-05-23T02:10:12;16.73;;;11.45;;
79036;SDS011;68434;59.896;30.474;2023-05-23T02:12:39;17.35;;;10.65;;
79036;SDS011;68434;59.896;30.474;2023-05-23T02:15:09;16.17;;;11.63;;
79036;SDS011;68434;59.896;30.474;2023-05-23T02:17:38;15.45;;;11.32;;
79036;SDS011;68434;59.896;30.474;2023-05-23T02:20:08;16.33;;;11.30;;
79036;SDS011;68434;59.896;30.474;2023-05-23T02:27:32;14.43;;;11.60;;
79036;SDS011;68434;59.896;30.474;2023-05-23T02:30:00;20.75;;;15.60;;
79036;SDS011;68434;59.896;30.474;2023-05-23T02:32:33;21.77;;;16.33;;
79036;SDS011;68434;59.896;30.474;2023-05-23T02:35:03;19.95;;;15.60;;
79036;SDS011;68434;59.896;30.474;2023-05-23T02:37:31;19.67;;;16.50;;
79036;SDS011;68434;59.896;30.474;2023-05-23T02:39:59;19.45;;;16.30;;
79036;SDS011;68434;59.896;30.474;2023-05-23T02:42:27;20.88;;;16.50;;
79036;SDS011;68434;59.896;30.474;2023-05-23T02:44:54;22.33;;;17.98;;
79036;SDS011;68434;59.896;30.474;2023-05-23T02:47:22;19.48;;;16.02;;
79036;SDS011;68434;59.896;30.474;2023-05-23T02:49:51;24.58;;;16.95;;
79036;SDS011;68434;59.896;30.474;2023-05-23T02:52:19;21.63;;;17.98;;
79036;SDS011;68434;59.896;30.474;2023-05-23T02:54:46;23.38;;;17.52;;
79036;SDS011;68434;59.896;30.474;2023-05-23T02:57:14;22.13;;;16.13;;
79036;SDS011;68434;59.896;30.474;2023-05-23T02:59:42;18.15;;;15.38;;
79036;SDS011;68434;59.896;30.474;2023-05-23T03:02:10;23.55;;;17.17;;
79036;SDS011;68434;59.896;30.474;2023-05-23T03:04:38;22.88;;;16.10;;
79036;SDS011;68434;59.896;30.474;2023-05-23T03:07:07;19.77;;;13.90;;
79036;SDS011;68434;59.896;30.474;2023-05-23T03:09:35;18.40;;;14.10;;
79036;SDS011;68434;59.896;30.474;2023-05-23T03:12:04;18.67;;;13.40;;
79036;SDS011;68434;59.896;30.474;2023-05-23T03:14:32;17.42;;;14.18;;
79036;SDS011;68434;59.896;30.474;2023-05-23T03:16:59;16.80;;;14.38;;
79036;SDS011;68434;59.896;30.474;2023-05-23T03:19:29;19.98;;;13.80;;
79036;SDS011;68434;59.896;30.474;2023-05-23T03:21:57;19.77;;;14.13;;
79036;SDS011;68434;59.896;30.474;2023-05-23T03:24:26;18.23;;;12.50;;
79036;SDS011;68434;59.896;30.474;2023-05-23T03:26:54;20.08;;;13.45;;
79036;SDS011;68434;59.896;30.474;2023-05-23T03:29:22;18.13;;;12.60;;
79036;SDS011;68434;59.896;30.474;2023-05-23T03:31:50;19.27;;;13.43;;
79036;SDS011;68434;59.896;30.474;2023-05-23T03:34:17;20.98;;;15.48;;
79036;SDS011;68434;59.896;30.474;2023-05-23T03:36:45;20.77;;;15.13;;
79036;SDS011;68434;59.896;30.474;2023-05-23T03:39:31;25.08;;;15.80;;
79036;SDS011;68434;59.896;30.474;2023-05-23T03:41:59;18.65;;;13.07;;
79036;SDS011;68434;59.896;30.474;2023-05-23T03:44:27;23.40;;;15.02;;
79036;SDS011;68434;59.896;30.474;2023-05-23T03:46:55;20.65;;;14.13;;
79036;SDS011;68434;59.896;30.474;2023-05-23T03:49:22;23.35;;;16.83;;
79036;SDS011;68434;59.896;30.474;2023-05-23T03:51:50;20.27;;;14.95;;
79036;SDS011;68434;59.896;30.474;2023-05-23T03:54:18;20.65;;;14.73;;
79036;SDS011;68434;59.896;30.474;2023-05-23T03:56:47;24.20;;;15.80;;
79036;SDS011;68434;59.896;30.474;2023-05-23T03:59:15;24.38;;;16.83;;
79036;SDS011;68434;59.896;30.474;2023-05-23T04:02:01;24.85;;;15.05;;
79036;SDS011;68434;59.896;30.474;2023-05-23T04:04:29;20.30;;;14.02;;
79036;SDS011;68434;59.896;30.474;2023-05-23T04:06:56;24.75;;;15.57;;
79036;SDS011;68434;59.896;30.474;2023-05-23T04:09:27;22.83;;;15.23;;
79036;SDS011;68434;59.896;30.474;2023-05-23T04:11:56;23.90;;;17.25;;
79036;SDS011;68434;59.896;30.474;2023-05-23T04:14:24;23.08;;;16.40;;
79036;SDS011;68434;59.896;30.474;2023-05-23T04:16:53;25.95;;;19.17;;
79036;SDS011;68434;59.896;30.474;2023-05-23T04:19:39;31.20;;;20.05;;
79036;SDS011;68434;59.896;30.474;2023-05-23T04:22:07;26.20;;;18.98;;
79036;SDS011;68434;59.896;30.474;2023-05-23T04:24:35;22.73;;;15.88;;
79036;SDS011;68434;59.896;30.474;2023-05-23T04:27:05;22.90;;;16.33;;
79036;SDS011;68434;59.896;30.474;2023-05-23T04:29:33;18.30;;;14.20;;
79036;SDS011;68434;59.896;30.474;2023-05-23T04:32:21;19.95;;;15.20;;
79036;SDS011;68434;59.896;30.474;2023-05-23T04:34:49;21.75;;;14.15;;
79036;SDS011;68434;59.896;30.474;2023-05-23T04:37:35;24.10;;;12.88;;
79036;SDS011;68434;59.896;30.474;2023-05-23T04:40:05;17.25;;;12.88;;
79036;SDS011;68434;59.896;30.474;2023-05-23T04:43:20;19.15;;;13.45;;
79036;SDS011;68434;59.896;30.474;2023-05-23T04:45:54;22.35;;;15.25;;
79036;SDS011;68434;59.896;30.474;2023-05-23T04:48:43;23.17;;;15.63;;
79036;SDS011;68434;59.896;30.474;2023-05-23T04:54:09;17.80;;;13.25;;
79036;SDS011;68434;59.896;30.474;2023-05-23T04:56:37;16.85;;;12.07;;
79036;SDS011;68434;59.896;30.474;2023-05-23T04:59:06;16.67;;;12.88;;
79036;SDS011;68434;59.896;30.474;2023-05-23T05:01:36;14.13;;;9.57;;
79036;SDS011;68434;59.896;30.474;2023-05-23T05:06:52;14.82;;;11.68;;
79036;SDS011;68434;59.896;30.474;2023-05-23T05:09:20;12.93;;;10.18;;
79036;SDS011;68434;59.896;30.474;2023-05-23T05:11:49;13.63;;;9.98;;
79036;SDS011;68434;59.896;30.474;2023-05-23T05:14:19;11.77;;;9.40;;
79036;SDS011;68434;59.896;30.474;2023-05-23T05:16:47;13.93;;;9.82;;
79036;SDS011;68434;59.896;30.474;2023-05-23T05:19:15;13.20;;;9.90;;
79036;SDS011;68434;59.896;30.474;2023-05-23T05:21:44;13.25;;;9.90;;
79036;SDS011;68434;59.896;30.474;2023-05-23T05:24:12;14.25;;;8.88;;
79036;SDS011;68434;59.896;30.474;2023-05-23T05:26:41;14.15;;;11.52;;
79036;SDS011;68434;59.896;30.474;2023-05-23T05:29:09;12.98;;;9.00;;
79036;SDS011;68434;59.896;30.474;2023-05-23T05:31:38;11.23;;;8.30;;
79036;SDS011;68434;59.896;30.474;2023-05-23T05:34:06;12.02;;;8.73;;
79036;SDS011;68434;59.896;30.474;2023-05-23T05:36:34;13.95;;;9.25;;
79036;SDS011;68434;59.896;30.474;2023-05-23T05:39:02;12.10;;;8.88;;
79036;SDS011;68434;59.896;30.474;2023-05-23T05:41:31;10.27;;;8.38;;
79036;SDS011;68434;59.896;30.474;2023-05-23T05:43:59;13.13;;;9.13;;
79036;SDS011;68434;59.896;30.474;2023-05-23T05:46:27;11.80;;;8.52;;
79036;SDS011;68434;59.896;30.474;2023-05-23T05:48:56;11.25;;;8.55;;
79036;SDS011;68434;59.896;30.474;2023-05-23T05:51:24;13.20;;;8.30;;
79036;SDS011;68434;59.896;30.474;2023-05-23T05:53:52;10.65;;;8.13;;
79036;SDS011;68434;59.896;30.474;2023-05-23T05:56:19;13.10;;;8.88;;
79036;SDS011;68434;59.896;30.474;2023-05-23T05:58:47;13.50;;;9.23;;
79036;SDS011;68434;59.896;30.474;2023-05-23T06:01:15;14.40;;;9.50;;
79036;SDS011;68434;59.896;30.474;2023-05-23T06:03:43;12.63;;;9.73;;
79036;SDS011;68434;59.896;30.474;2023-05-23T06:06:13;10.23;;;8.35;;
79036;SDS011;68434;59.896;30.474;2023-05-23T06:08:41;10.82;;;8.77;;
79036;SDS011;68434;59.896;30.474;2023-05-23T06:11:13;10.95;;;7.82;;
79036;SDS011;68434;59.896;30.474;2023-05-23T06:13:41;10.60;;;7.60;;
79036;SDS011;68434;59.896;30.474;2023-05-23T06:16:09;10.32;;;8.32;;
79036;SDS011;68434;59.896;30.474;2023-05-23T06:18:37;9.07;;;7.63;;
79036;SDS011;68434;59.896;30.474;2023-05-23T06:21:04;11.32;;;7.93;;
79036;SDS011;68434;59.896;30.474;2023-05-23T06:23:35;10.32;;;7.90;;
79036;SDS011;68434;59.896;30.474;2023-05-23T06:26:04;8.48;;;7.57;;
79036;SDS011;68434;59.896;30.474;2023-05-23T06:28:36;9.70;;;7.65;;
79036;SDS011;68434;59.896;30.474;2023-05-23T06:31:06;9.77;;;8.55;;
79036;SDS011;68434;59.896;30.474;2023-05-23T06:33:35;10.82;;;8.05;;
79036;SDS011;68434;59.896;30.474;2023-05-23T06:36:03;9.60;;;7.53;;
79036;SDS011;68434;59.896;30.474;2023-05-23T06:38:31;8.65;;;6.43;;
79036;SDS011;68434;59.896;30.474;2023-05-23T06:41:01;9.00;;;6.80;;
79036;SDS011;68434;59.896;30.474;2023-05-23T06:43:32;14.68;;;7.72;;
79036;SDS011;68434;59.896;30.474;2023-05-23T06:46:23;8.52;;;6.25;;
79036;SDS011;68434;59.896;30.474;2023-05-23T06:51:18;8.48;;;6.65;;
79036;SDS011;68434;59.896;30.474;2023-05-23T06:53:46;9.77;;;6.93;;
79036;SDS011;68434;59.896;30.474;2023-05-23T06:56:15;9.57;;;6.82;;
79036;SDS011;68434;59.896;30.474;2023-05-23T06:58:54;8.18;;;6.50;;
79036;SDS011;68434;59.896;30.474;2023-05-23T07:01:22;8.45;;;6.72;;
79036;SDS011;68434;59.896;30.474;2023-05-23T07:03:50;10.48;;;6.97;;
79036;SDS011;68434;59.896;30.474;2023-05-23T07:06:18;9.00;;;5.95;;
79036;SDS011;68434;59.896;30.474;2023-05-23T07:08:45;9.07;;;6.53;;
79036;SDS011;68434;59.896;30.474;2023-05-23T07:11:16;7.97;;;6.68;;
79036;SDS011;68434;59.896;30.474;2023-05-23T07:13:49;9.88;;;6.75;;
79036;SDS011;68434;59.896;30.474;2023-05-23T07:16:37;7.57;;;5.93;;
79036;SDS011;68434;59.896;30.474;2023-05-23T07:19:06;7.63;;;6.43;;
79036;SDS011;68434;59.896;30.474;2023-05-23T07:21:47;9.50;;;5.60;;
79036;SDS011;68434;59.896;30.474;2023-05-23T07:24:16;6.95;;;5.72;;
79036;SDS011;68434;59.896;30.474;2023-05-23T07:26:48;10.32;;;6.45;;
79036;SDS011;68434;59.896;30.474;2023-05-23T07:29:16;7.28;;;6.00;;
79036;SDS011;68434;59.896;30.474;2023-05-23T07:31:46;6.88;;;5.32;;
79036;SDS011;68434;59.896;30.474;2023-05-23T07:34:13;8.30;;;5.50;;
79036;SDS011;68434;59.896;30.474;2023-05-23T07:36:55;6.78;;;5.68;;
79036;SDS011;68434;59.896;30.474;2023-05-23T07:39:25;6.35;;;4.97;;
79036;SDS011;68434;59.896;30.474;2023-05-23T07:41:56;7.93;;;5.10;;
79036;SDS011;68434;59.896;30.474;2023-05-23T07:44:24;14.00;;;5.65;;
79036;SDS011;68434;59.896;30.474;2023-05-23T07:46:52;7.57;;;5.05;;
79036;SDS011;68434;59.896;30.474;2023-05-23T07:49:21;8.10;;;5.20;;
79036;SDS011;68434;59.896;30.474;2023-05-23T07:54:17;8.60;;;4.50;;
79036;SDS011;68434;59.896;30.474;2023-05-23T07:56:44;6.90;;;4.55;;
79036;SDS011;68434;59.896;30.474;2023-05-23T07:59:15;5.43;;;4.47;;
79036;SDS011;68434;59.896;30.474;2023-05-23T08:01:44;6.00;;;4.03;;
79036;SDS011;68434;59.896;30.474;2023-05-23T08:04:17;7.75;;;4.38;;
79036;SDS011;68434;59.896;30.474;2023-05-23T08:06:50;5.85;;;4.70;;
79036;SDS011;68434;59.896;30.474;2023-05-23T08:09:19;7.10;;;4.07;;
79036;SDS011;68434;59.896;30.474;2023-05-23T08:11:51;6.43;;;3.78;;
79036;SDS011;68434;59.896;30.474;2023-05-23T08:14:22;9.25;;;3.90;;
79036;SDS011;68434;59.896;30.474;2023-05-23T08:16:56;4.50;;;3.55;;
79036;SDS011;68434;59.896;30.474;2023-05-23T08:19:26;8.27;;;3.90;;
79036;SDS011;68434;59.896;30.474;2023-05-23T08:21:54;7.45;;;3.78;;
79036;SDS011;68434;59.896;30.474;2023-05-23T08:24:21;5.00;;;3.85;;
79036;SDS011;68434;59.896;30.474;2023-05-23T08:26:54;5.13;;;4.22;;
79036;SDS011;68434;59.896;30.474;2023-05-23T08:29:23;6.70;;;3.85;;
79036;SDS011;68434;59.896;30.474;2023-05-23T08:31:51;7.45;;;3.67;;
79036;SDS011;68434;59.896;30.474;2023-05-23T08:34:19;5.03;;;3.75;;
79036;SDS011;68434;59.896;30.474;2023-05-23T08:36:47;4.50;;;3.25;;
79036;SDS011;68434;59.896;30.474;2023-05-23T08:39:19;5.18;;;3.72;;
79036;SDS011;68434;59.896;30.474;2023-05-23T08:41:57;5.70;;;4.07;;
79036;SDS011;68434;59.896;30.474;2023-05-23T08:44:26;5.97;;;3.60;;
79036;SDS011;68434;59.896;30.474;2023-05-23T08:47:02;5.13;;;3.65;;
79036;SDS011;68434;59.896;30.474;2023-05-23T08:49:53;5.85;;;4.10;;
79036;SDS011;68434;59.896;30.474;2023-05-23T08:52:24;7.53;;;3.78;;
79036;SDS011;68434;59.896;30.474;2023-05-23T08:54:55;5.05;;;4.35;;
79036;SDS011;68434;59.896;30.474;2023-05-23T08:57:24;5.25;;;3.22;;
79036;SDS011;68434;59.896;30.474;2023-05-23T09:00:04;5.18;;;3.95;;
79036;SDS011;68434;59.896;30.474;2023-05-23T09:02:40;5.25;;;3.72;;
79036;SDS011;68434;59.896;30.474;2023-05-23T09:05:23;4.88;;;3.70;;
79036;SDS011;68434;59.896;30.474;2023-05-23T09:07:52;4.40;;;3.58;;
79036;SDS011;68434;59.896;30.474;2023-05-23T09:10:22;6.30;;;4.13;;
79036;SDS011;68434;59.896;30.474;2023-05-23T09:12:51;4.95;;;4.00;;
79036;SDS011;68434;59.896;30.474;2023-05-23T09:15:20;5.15;;;3.38;;
79036;SDS011;68434;59.896;30.474;2023-05-23T09:17:48;5.80;;;3.65;;
79036;SDS011;68434;59.896;30.474;2023-05-23T09:20:16;4.32;;;3.50;;
79036;SDS011;68434;59.896;30.474;2023-05-23T09:22:54;5.40;;;3.38;;
79036;SDS011;68434;59.896;30.474;2023-05-23T09:27:50;4.32;;;3.45;;
79036;SDS011;68434;59.896;30.474;2023-05-23T09:30:20;5.30;;;3.63;;
79036;SDS011;68434;59.896;30.474;2023-05-23T09:32:57;5.95;;;3.85;;
79036;SDS011;68434;59.896;30.474;2023-05-23T09:35:27;5.55;;;4.38;;
79036;SDS011;68434;59.896;30.474;2023-05-23T09:37:56;5.22;;;4.10;;
79036;SDS011;68434;59.896;30.474;2023-05-23T09:40:28;5.18;;;4.38;;
79036;SDS011;68434;59.896;30.474;2023-05-23T09:43:03;7.38;;;4.28;;
79036;SDS011;68434;59.896;30.474;2023-05-23T09:45:33;5.38;;;4.57;;
79036;SDS011;68434;59.896;30.474;2023-05-23T09:48:01;6.15;;;4.78;;
79036;SDS011;68434;59.896;30.474;2023-05-23T09:50:38;5.13;;;3.80;;
79036;SDS011;68434;59.896;30.474;2023-05-23T09:53:06;7.15;;;5.00;;
79036;SDS011;68434;59.896;30.474;2023-05-23T09:55:34;7.38;;;4.10;;
79036;SDS011;68434;59.896;30.474;2023-05-23T09:58:05;7.25;;;4.22;;
79036;SDS011;68434;59.896;30.474;2023-05-23T10:00:35;5.60;;;4.32;;
79036;SDS011;68434;59.896;30.474;2023-05-23T10:03:05;5.20;;;3.95;;
79036;SDS011;68434;59.896;30.474;2023-05-23T10:05:37;4.82;;;3.90;;
79036;SDS011;68434;59.896;30.474;2023-05-23T10:08:11;7.93;;;4.32;;
79036;SDS011;68434;59.896;30.474;2023-05-23T10:10:58;5.38;;;4.32;;
79036;SDS011;68434;59.896;30.474;2023-05-23T10:16:33;7.50;;;4.05;;
79036;SDS011;68434;59.896;30.474;2023-05-23T10:19:12;5.13;;;4.32;;
79036;SDS011;68434;59.896;30.474;2023-05-23T10:21:50;4.88;;;3.80;;
79036;SDS011;68434;59.896;30.474;2023-05-23T10:24:24;6.03;;;3.95;;
79036;SDS011;68434;59.896;30.474;2023-05-23T10:26:52;6.50;;;4.65;;
79036;SDS011;68434;59.896;30.474;2023-05-23T10:31:50;7.32;;;3.80;;
79036;SDS011;68434;59.896;30.474;2023-05-23T10:34:21;6.55;;;3.88;;
79036;SDS011;68434;59.896;30.474;2023-05-23T10:36:55;5.13;;;3.80;;
79036;SDS011;68434;59.896;30.474;2023-05-23T10:39:31;8.05;;;4.65;;
79036;SDS011;68434;59.896;30.474;2023-05-23T10:42:08;8.55;;;4.35;;
79036;SDS011;68434;59.896;30.474;2023-05-23T10:44:39;4.95;;;4.05;;
79036;SDS011;68434;59.896;30.474;2023-05-23T10:47:11;9.23;;;4.40;;
79036;SDS011;68434;59.896;30.474;2023-05-23T10:49:51;5.72;;;4.28;;
79036;SDS011;68434;59.896;30.474;2023-05-23T10:52:22;4.80;;;3.90;;
79036;SDS011;68434;59.896;30.474;2023-05-23T10:54:52;5.00;;;4.10;;
79036;SDS011;68434;59.896;30.474;2023-05-23T10:57:21;5.18;;;4.20;;
79036;SDS011;68434;59.896;30.474;2023-05-23T10:59:52;5.65;;;4.40;;
79036;SDS011;68434;59.896;30.474;2023-05-23T11:02:25;5.05;;;3.75;;
79036;SDS011;68434;59.896;30.474;2023-05-23T11:08:07;6.35;;;3.67;;
79036;SDS011;68434;59.896;30.474;2023-05-23T11:10:55;5.53;;;4.43;;
79036;SDS011;68434;59.896;30.474;2023-05-23T11:13:52;6.25;;;3.83;;
79036;SDS011;68434;59.896;30.474;2023-05-23T11:16:25;5.78;;;3.75;;
79036;SDS011;68434;59.896;30.474;2023-05-23T11:19:22;5.13;;;3.95;;
79036;SDS011;68434;59.896;30.474;2023-05-23T11:21:54;4.80;;;4.30;;
79036;SDS011;68434;59.896;30.474;2023-05-23T11:24:27;5.97;;;4.07;;
79036;SDS011;68434;59.896;30.474;2023-05-23T11:27:15;6.22;;;3.75;;
79036;SDS011;68434;59.896;30.474;2023-05-23T11:29:45;5.30;;;3.50;;
79036;SDS011;68434;59.896;30.474;2023-05-23T11:32:26;5.68;;;3.72;;
79036;SDS011;68434;59.896;30.474;2023-05-23T11:34:59;5.68;;;3.63;;
79036;SDS011;68434;59.896;30.474;2023-05-23T11:37:31;4.13;;;3.28;;
79036;SDS011;68434;59.896;30.474;2023-05-23T11:40:00;5.22;;;3.67;;
79036;SDS011;68434;59.896;30.474;2023-05-23T11:42:54;5.32;;;3.70;;
79036;SDS011;68434;59.896;30.474;2023-05-23T11:45:22;6.22;;;4.38;;
79036;SDS011;68434;59.896;30.474;2023-05-23T11:47:51;8.35;;;4.80;;
79036;SDS011;68434;59.896;30.474;2023-05-23T11:50:20;6.57;;;3.80;;
79036;SDS011;68434;59.896;30.474;2023-05-23T11:52:49;9.13;;;4.25;;
79036;SDS011;68434;59.896;30.474;2023-05-23T11:55:17;4.50;;;3.38;;
79036;SDS011;68434;59.896;30.474;2023-05-23T11:57:46;6.50;;;3.75;;
79036;SDS011;68434;59.896;30.474;2023-05-23T12:02:43;5.68;;;3.90;;
79036;SDS011;68434;59.896;30.474;2023-05-23T12:05:13;6.85;;;3.47;;
79036;SDS011;68434;59.896;30.474;2023-05-23T12:07:42;6.50;;;3.50;;
79036;SDS011;68434;59.896;30.474;2023-05-23T12:10:11;5.07;;;3.60;;
79036;SDS011;68434;59.896;30.474;2023-05-23T12:12:41;6.78;;;3.83;;
79036;SDS011;68434;59.896;30.474;2023-05-23T12:15:28;4.38;;;3.45;;
79036;SDS011;68434;59.896;30.474;2023-05-23T12:17:56;6.60;;;3.95;;
79036;SDS011;68434;59.896;30.474;2023-05-23T12:20:25;4.35;;;3.42;;
79036;SDS011;68434;59.896;30.474;2023-05-23T12:22:54;6.45;;;3.67;;
79036;SDS011;68434;59.896;30.474;2023-05-23T12:25:23;6.18;;;4.03;;
79036;SDS011;68434;59.896;30.474;2023-05-23T12:28:08;5.43;;;3.63;;
79036;SDS011;68434;59.896;30.474;2023-05-23T12:30:41;19.15;;;5.05;;
79036;SDS011;68434;59.896;30.474;2023-05-23T12:33:26;5.68;;;3.65;;
79036;SDS011;68434;59.896;30.474;2023-05-23T12:35:54;7.80;;;4.20;;
79036;SDS011;68434;59.896;30.474;2023-05-23T12:38:25;5.90;;;3.47;;
79036;SDS011;68434;59.896;30.474;2023-05-23T12:41:06;6.30;;;3.83;;
79036;SDS011;68434;59.896;30.474;2023-05-23T12:43:36;8.20;;;3.75;;
79036;SDS011;68434;59.896;30.474;2023-05-23T12:46:04;8.55;;;4.32;;
79036;SDS011;68434;59.896;30.474;2023-05-23T12:48:32;5.93;;;4.00;;
79036;SDS011;68434;59.896;30.474;2023-05-23T12:53:29;4.13;;;3.28;;
79036;SDS011;68434;59.896;30.474;2023-05-23T12:55:57;5.32;;;3.30;;
79036;SDS011;68434;59.896;30.474;2023-05-23T12:58:25;6.13;;;4.22;;
79036;SDS011;68434;59.896;30.474;2023-05-23T13:00:53;6.38;;;3.90;;
79036;SDS011;68434;59.896;30.474;2023-05-23T13:03:21;5.57;;;3.90;;
79036;SDS011;68434;59.896;30.474;2023-05-23T13:05:48;6.25;;;4.38;;
79036;SDS011;68434;59.896;30.474;2023-05-23T13:08:17;5.82;;;3.65;;
79036;SDS011;68434;59.896;30.474;2023-05-23T13:10:46;7.43;;;3.92;;
79036;SDS011;68434;59.896;30.474;2023-05-23T13:13:14;6.10;;;4.50;;
79036;SDS011;68434;59.896;30.474;2023-05-23T13:15:41;6.78;;;4.00;;
79036;SDS011;68434;59.896;30.474;2023-05-23T13:18:09;5.80;;;3.00;;
79036;SDS011;68434;59.896;30.474;2023-05-23T13:20:37;6.97;;;3.90;;
79036;SDS011;68434;59.896;30.474;2023-05-23T13:23:05;6.03;;;3.83;;
79036;SDS011;68434;59.896;30.474;2023-05-23T13:25:34;4.20;;;3.72;;
79036;SDS011;68434;59.896;30.474;2023-05-23T13:28:03;4.78;;;3.50;;
79036;SDS011;68434;59.896;30.474;2023-05-23T13:30:31;5.22;;;3.70;;
79036;SDS011;68434;59.896;30.474;2023-05-23T13:32:59;5.18;;;4.30;;
79036;SDS011;68434;59.896;30.474;2023-05-23T13:35:26;5.40;;;3.50;;
79036;SDS011;68434;59.896;30.474;2023-05-23T13:40:22;6.13;;;3.65;;
79036;SDS011;68434;59.896;30.474;2023-05-23T13:45:19;6.97;;;4.00;;
79036;SDS011;68434;59.896;30.474;2023-05-23T13:47:48;5.10;;;3.85;;
79036;SDS011;68434;59.896;30.474;2023-05-23T13:50:16;6.32;;;4.15;;
79036;SDS011;68434;59.896;30.474;2023-05-23T13:52:43;5.65;;;4.05;;
79036;SDS011;68434;59.896;30.474;2023-05-23T13:55:11;5.57;;;3.75;;
79036;SDS011;68434;59.896;30.474;2023-05-23T13:57:39;8.75;;;4.10;;
79036;SDS011;68434;59.896;30.474;2023-05-23T14:00:07;5.13;;;3.88;;
79036;SDS011;68434;59.896;30.474;2023-05-23T14:02:37;6.95;;;3.83;;
79036;SDS011;68434;59.896;30.474;2023-05-23T14:05:05;5.50;;;3.55;;
79036;SDS011;68434;59.896;30.474;2023-05-23T14:07:33;7.15;;;3.33;;
79036;SDS011;68434;59.896;30.474;2023-05-23T14:12:29;5.57;;;3.33;;
79036;SDS011;68434;59.896;30.474;2023-05-23T14:14:57;6.15;;;4.10;;
79036;SDS011;68434;59.896;30.474;2023-05-23T14:19:54;5.68;;;3.60;;
79036;SDS011;68434;59.896;30.474;2023-05-23T14:22:21;5.70;;;3.75;;
79036;SDS011;68434;59.896;30.474;2023-05-23T14:24:50;7.70;;;4.38;;
79036;SDS011;68434;59.896;30.474;2023-05-23T14:27:17;6.00;;;3.75;;
79036;SDS011;68434;59.896;30.474;2023-05-23T14:29:45;6.68;;;4.10;;
79036;SDS011;68434;59.896;30.474;2023-05-23T14:32:13;5.35;;;4.00;;
79036;SDS011;68434;59.896;30.474;2023-05-23T14:34:41;6.07;;;3.92;;
79036;SDS011;68434;59.896;30.474;2023-05-23T14:37:10;7.10;;;4.22;;
79036;SDS011;68434;59.896;30.474;2023-05-23T14:39:38;5.32;;;3.97;;
79036;SDS011;68434;59.896;30.474;2023-05-23T14:42:05;6.30;;;3.65;;
79036;SDS011;68434;59.896;30.474;2023-05-23T14:44:33;5.38;;;3.88;;
79036;SDS011;68434;59.896;30.474;2023-05-23T14:47:01;5.43;;;4.30;;
79036;SDS011;68434;59.896;30.474;2023-05-23T14:49:29;5.78;;;4.32;;
79036;SDS011;68434;59.896;30.474;2023-05-23T14:51:57;5.80;;;4.13;;
79036;SDS011;68434;59.896;30.474;2023-05-23T14:54:26;5.75;;;3.47;;
79036;SDS011;68434;59.896;30.474;2023-05-23T14:56:53;5.65;;;3.33;;
79036;SDS011;68434;59.896;30.474;2023-05-23T14:59:21;4.40;;;3.28;;
79036;SDS011;68434;59.896;30.474;2023-05-23T15:01:49;6.00;;;3.58;;
79036;SDS011;68434;59.896;30.474;2023-05-23T15:04:16;5.93;;;3.42;;
79036;SDS011;68434;59.896;30.474;2023-05-23T15:06:44;5.28;;;3.50;;
79036;SDS011;68434;59.896;30.474;2023-05-23T15:09:13;6.50;;;3.70;;
79036;SDS011;68434;59.896;30.474;2023-05-23T15:11:42;6.18;;;3.83;;
79036;SDS011;68434;59.896;30.474;2023-05-23T15:14:11;5.63;;;3.90;;
79036;SDS011;68434;59.896;30.474;2023-05-23T15:16:39;5.45;;;3.80;;
79036;SDS011;68434;59.896;30.474;2023-05-23T15:19:09;4.32;;;3.50;;
79036;SDS011;68434;59.896;30.474;2023-05-23T15:21:37;5.07;;;3.47;;
79036;SDS011;68434;59.896;30.474;2023-05-23T15:24:05;5.93;;;3.67;;
79036;SDS011;68434;59.896;30.474;2023-05-23T15:26:34;7.72;;;4.63;;
79036;SDS011;68434;59.896;30.474;2023-05-23T15:29:02;6.35;;;4.13;;